sensor_id;sensor_type;location;lat;lon;timestamp;P1;durP1;ratioP1;P2;durP2;ratioP2
76417;SDS011;65250;47.602;19.002;2024-03-22T00:02:02;15.20;;;8.40;;
76417;SDS011;65250;47.602;19.002;2024-03-22T00:04:28;16.35;;;8.35;;
76417;SDS011;65250;47.602;19.002;2024-03-22T00:06:55;15.48;;;8.18;;
76417;SDS011;65250;47.602;19.002;2024-03-22T00:09:21;18.23;;;9.07;;
76417;SDS011;65250;47.602;19.002;2024-03-22T00:11:46;18.00;;;8.10;;
76417;SDS011;65250;47.602;19.002;2024-03-22T00:14:12;20.58;;;8.77;;
76417;SDS011;65250;47.602;19.002;2024-03-22T00:16:38;16.55;;;8.07;;
76417;SDS011;65250;47.602;19.002;2024-03-22T00:19:05;19.77;;;8.55;;
76417;SDS011;65250;47.602;19.002;2024-03-22T00:21:30;17.43;;;7.83;;
76417;SDS011;65250;47.602;19.002;2024-03-22T00:23:57;18.25;;;8.20;;
76417;SDS011;65250;47.602;19.002;2024-03-22T00:26:23;19.58;;;9.45;;
76417;SDS011;65250;47.602;19.002;2024-03-22T00:28:49;20.52;;;9.07;;
76417;SDS011;65250;47.602;19.002;2024-03-22T00:31:15;17.23;;;8.60;;
76417;SDS011;65250;47.602;19.002;2024-03-22T00:33:42;15.97;;;8.07;;
76417;SDS011;65250;47.602;19.002;2024-03-22T00:36:08;18.73;;;7.93;;
76417;SDS011;65250;47.602;19.002;2024-03-22T00:38:34;17.52;;;7.78;;
76417;SDS011;65250;47.602;19.002;2024-03-22T00:41:00;17.60;;;8.50;;
76417;SDS011;65250;47.602;19.002;2024-03-22T00:43:26;14.97;;;8.07;;
76417;SDS011;65250;47.602;19.002;2024-03-22T00:45:52;16.20;;;8.43;;
76417;SDS011;65250;47.602;19.002;2024-03-22T00:48:18;18.45;;;9.18;;
76417;SDS011;65250;47.602;19.002;2024-03-22T00:50:44;18.93;;;8.97;;
76417;SDS011;65250;47.602;19.002;2024-03-22T00:53:10;18.08;;;9.00;;
76417;SDS011;65250;47.602;19.002;2024-03-22T00:55:36;19.83;;;9.23;;
76417;SDS011;65250;47.602;19.002;2024-03-22T00:58:02;15.68;;;7.93;;
76417;SDS011;65250;47.602;19.002;2024-03-22T01:00:28;17.90;;;9.60;;
76417;SDS011;65250;47.602;19.002;2024-03-22T01:02:53;16.98;;;8.00;;
76417;SDS011;65250;47.602;19.002;2024-03-22T01:05:20;20.40;;;9.70;;
76417;SDS011;65250;47.602;19.002;2024-03-22T01:07:46;18.80;;;9.55;;
76417;SDS011;65250;47.602;19.002;2024-03-22T01:10:12;16.73;;;8.93;;
76417;SDS011;65250;47.602;19.002;2024-03-22T01:12:38;16.33;;;8.60;;
76417;SDS011;65250;47.602;19.002;2024-03-22T01:15:05;19.80;;;9.00;;
76417;SDS011;65250;47.602;19.002;2024-03-22T01:17:32;22.88;;;9.43;;
76417;SDS011;65250;47.602;19.002;2024-03-22T01:19:58;19.35;;;8.93;;
76417;SDS011;65250;47.602;19.002;2024-03-22T01:22:24;19.30;;;8.83;;
76417;SDS011;65250;47.602;19.002;2024-03-22T01:24:50;18.30;;;8.40;;
76417;SDS011;65250;47.602;19.002;2024-03-22T01:27:16;18.40;;;9.02;;
76417;SDS011;65250;47.602;19.002;2024-03-22T01:29:42;20.20;;;9.40;;
76417;SDS011;65250;47.602;19.002;2024-03-22T01:32:08;16.17;;;8.48;;
76417;SDS011;65250;47.602;19.002;2024-03-22T01:34:34;18.63;;;8.55;;
76417;SDS011;65250;47.602;19.002;2024-03-22T01:37:00;17.75;;;9.07;;
76417;SDS011;65250;47.602;19.002;2024-03-22T01:39:27;20.10;;;8.80;;
76417;SDS011;65250;47.602;19.002;2024-03-22T01:41:53;17.83;;;9.20;;
76417;SDS011;65250;47.602;19.002;2024-03-22T01:44:19;17.08;;;9.02;;
76417;SDS011;65250;47.602;19.002;2024-03-22T01:46:46;19.60;;;8.95;;
76417;SDS011;65250;47.602;19.002;2024-03-22T01:49:13;22.27;;;9.07;;
76417;SDS011;65250;47.602;19.002;2024-03-22T01:51:41;20.27;;;9.40;;
76417;SDS011;65250;47.602;19.002;2024-03-22T01:54:08;17.50;;;8.77;;
76417;SDS011;65250;47.602;19.002;2024-03-22T01:56:36;16.65;;;8.73;;
76417;SDS011;65250;47.602;19.002;2024-03-22T01:59:03;17.65;;;9.27;;
76417;SDS011;65250;47.602;19.002;2024-03-22T02:01:30;22.58;;;8.80;;
76417;SDS011;65250;47.602;19.002;2024-03-22T02:03:56;18.63;;;9.48;;
76417;SDS011;65250;47.602;19.002;2024-03-22T02:06:22;20.17;;;8.88;;
76417;SDS011;65250;47.602;19.002;2024-03-22T02:08:47;16.42;;;8.60;;
76417;SDS011;65250;47.602;19.002;2024-03-22T02:11:13;19.73;;;9.35;;
76417;SDS011;65250;47.602;19.002;2024-03-22T02:13:40;18.15;;;9.18;;
76417;SDS011;65250;47.602;19.002;2024-03-22T02:16:06;19.77;;;9.13;;
76417;SDS011;65250;47.602;19.002;2024-03-22T02:18:32;17.20;;;8.73;;
76417;SDS011;65250;47.602;19.002;2024-03-22T02:20:58;19.77;;;8.20;;
76417;SDS011;65250;47.602;19.002;2024-03-22T02:23:34;20.98;;;9.57;;
76417;SDS011;65250;47.602;19.002;2024-03-22T02:26:00;17.33;;;8.32;;
76417;SDS011;65250;47.602;19.002;2024-03-22T02:28:27;20.60;;;9.27;;
76417;SDS011;65250;47.602;19.002;2024-03-22T02:30:53;17.40;;;8.63;;
76417;SDS011;65250;47.602;19.002;2024-03-22T02:33:20;18.52;;;8.93;;
76417;SDS011;65250;47.602;19.002;2024-03-22T02:35:46;18.77;;;9.00;;
76417;SDS011;65250;47.602;19.002;2024-03-22T02:38:12;20.48;;;8.73;;
76417;SDS011;65250;47.602;19.002;2024-03-22T02:40:38;19.40;;;8.63;;
76417;SDS011;65250;47.602;19.002;2024-03-22T02:43:04;18.33;;;9.60;;
76417;SDS011;65250;47.602;19.002;2024-03-22T02:45:31;18.52;;;9.48;;
76417;SDS011;65250;47.602;19.002;2024-03-22T02:47:57;15.30;;;9.05;;
76417;SDS011;65250;47.602;19.002;2024-03-22T02:50:23;18.30;;;9.30;;
76417;SDS011;65250;47.602;19.002;2024-03-22T02:52:49;19.60;;;9.80;;
76417;SDS011;65250;47.602;19.002;2024-03-22T02:55:15;19.58;;;8.63;;
76417;SDS011;65250;47.602;19.002;2024-03-22T02:57:41;18.50;;;9.73;;
76417;SDS011;65250;47.602;19.002;2024-03-22T03:00:08;18.08;;;9.32;;
76417;SDS011;65250;47.602;19.002;2024-03-22T03:02:34;20.60;;;10.35;;
76417;SDS011;65250;47.602;19.002;2024-03-22T03:05:00;18.00;;;9.27;;
76417;SDS011;65250;47.602;19.002;2024-03-22T03:07:26;19.48;;;10.20;;
76417;SDS011;65250;47.602;19.002;2024-03-22T03:09:53;15.82;;;9.60;;
76417;SDS011;65250;47.602;19.002;2024-03-22T03:12:19;16.48;;;9.50;;
76417;SDS011;65250;47.602;19.002;2024-03-22T03:14:45;18.85;;;9.50;;
76417;SDS011;65250;47.602;19.002;2024-03-22T03:17:11;18.50;;;9.87;;
76417;SDS011;65250;47.602;19.002;2024-03-22T03:19:37;19.20;;;9.85;;
76417;SDS011;65250;47.602;19.002;2024-03-22T03:22:03;17.33;;;9.30;;
76417;SDS011;65250;47.602;19.002;2024-03-22T03:24:29;20.17;;;9.40;;
76417;SDS011;65250;47.602;19.002;2024-03-22T03:26:56;17.95;;;9.15;;
76417;SDS011;65250;47.602;19.002;2024-03-22T03:29:22;16.55;;;9.90;;
76417;SDS011;65250;47.602;19.002;2024-03-22T03:31:48;21.77;;;10.10;;
76417;SDS011;65250;47.602;19.002;2024-03-22T03:34:14;17.98;;;8.80;;
76417;SDS011;65250;47.602;19.002;2024-03-22T03:36:41;18.53;;;9.87;;
76417;SDS011;65250;47.602;19.002;2024-03-22T03:39:07;18.80;;;9.32;;
76417;SDS011;65250;47.602;19.002;2024-03-22T03:41:33;18.90;;;10.00;;
76417;SDS011;65250;47.602;19.002;2024-03-22T03:43:59;19.13;;;10.27;;
76417;SDS011;65250;47.602;19.002;2024-03-22T03:46:25;16.13;;;9.40;;
76417;SDS011;65250;47.602;19.002;2024-03-22T03:48:51;21.10;;;10.27;;
76417;SDS011;65250;47.602;19.002;2024-03-22T03:51:17;16.88;;;9.43;;
76417;SDS011;65250;47.602;19.002;2024-03-22T03:53:43;17.60;;;9.95;;
76417;SDS011;65250;47.602;19.002;2024-03-22T03:56:09;18.88;;;9.68;;
76417;SDS011;65250;47.602;19.002;2024-03-22T03:58:35;16.53;;;10.40;;
76417;SDS011;65250;47.602;19.002;2024-03-22T04:01:08;15.23;;;10.23;;
76417;SDS011;65250;47.602;19.002;2024-03-22T04:03:34;15.18;;;9.30;;
76417;SDS011;65250;47.602;19.002;2024-03-22T04:06:01;16.75;;;9.90;;
76417;SDS011;65250;47.602;19.002;2024-03-22T04:08:27;18.75;;;9.95;;
76417;SDS011;65250;47.602;19.002;2024-03-22T04:10:53;16.97;;;9.13;;
76417;SDS011;65250;47.602;19.002;2024-03-22T04:13:25;15.98;;;10.05;;
76417;SDS011;65250;47.602;19.002;2024-03-22T04:15:52;15.75;;;9.25;;
76417;SDS011;65250;47.602;19.002;2024-03-22T04:18:19;17.70;;;10.23;;
76417;SDS011;65250;47.602;19.002;2024-03-22T04:20:55;17.85;;;9.63;;
76417;SDS011;65250;47.602;19.002;2024-03-22T04:23:22;16.17;;;9.07;;
76417;SDS011;65250;47.602;19.002;2024-03-22T04:25:52;15.93;;;9.95;;
76417;SDS011;65250;47.602;19.002;2024-03-22T04:28:22;15.90;;;9.23;;
76417;SDS011;65250;47.602;19.002;2024-03-22T04:30:58;13.77;;;8.32;;
76417;SDS011;65250;47.602;19.002;2024-03-22T04:33:25;14.18;;;9.50;;
76417;SDS011;65250;47.602;19.002;2024-03-22T04:35:52;17.60;;;9.77;;
76417;SDS011;65250;47.602;19.002;2024-03-22T04:38:19;15.75;;;9.18;;
76417;SDS011;65250;47.602;19.002;2024-03-22T04:40:45;16.95;;;9.40;;
76417;SDS011;65250;47.602;19.002;2024-03-22T04:43:10;14.77;;;8.82;;
76417;SDS011;65250;47.602;19.002;2024-03-22T04:45:37;15.52;;;9.10;;
76417;SDS011;65250;47.602;19.002;2024-03-22T04:48:03;19.95;;;8.95;;
76417;SDS011;65250;47.602;19.002;2024-03-22T04:50:30;17.30;;;9.07;;
76417;SDS011;65250;47.602;19.002;2024-03-22T04:52:56;14.93;;;9.27;;
76417;SDS011;65250;47.602;19.002;2024-03-22T04:55:23;14.93;;;9.13;;
76417;SDS011;65250;47.602;19.002;2024-03-22T04:57:49;18.15;;;9.88;;
76417;SDS011;65250;47.602;19.002;2024-03-22T05:00:15;15.57;;;9.38;;
76417;SDS011;65250;47.602;19.002;2024-03-22T05:02:41;15.48;;;9.27;;
76417;SDS011;65250;47.602;19.002;2024-03-22T05:05:08;16.73;;;10.30;;
76417;SDS011;65250;47.602;19.002;2024-03-22T05:07:34;19.20;;;10.68;;
76417;SDS011;65250;47.602;19.002;2024-03-22T05:10:00;19.40;;;9.38;;
76417;SDS011;65250;47.602;19.002;2024-03-22T05:12:26;18.33;;;9.50;;
76417;SDS011;65250;47.602;19.002;2024-03-22T05:14:52;19.05;;;9.70;;
76417;SDS011;65250;47.602;19.002;2024-03-22T05:17:18;18.95;;;10.35;;
76417;SDS011;65250;47.602;19.002;2024-03-22T05:19:44;15.33;;;9.73;;
76417;SDS011;65250;47.602;19.002;2024-03-22T05:22:10;16.17;;;9.32;;
76417;SDS011;65250;47.602;19.002;2024-03-22T05:24:36;16.70;;;9.57;;
76417;SDS011;65250;47.602;19.002;2024-03-22T05:27:02;13.88;;;8.13;;
76417;SDS011;65250;47.602;19.002;2024-03-22T05:29:29;15.23;;;9.13;;
76417;SDS011;65250;47.602;19.002;2024-03-22T05:31:55;16.20;;;9.10;;
76417;SDS011;65250;47.602;19.002;2024-03-22T05:34:21;17.85;;;8.77;;
76417;SDS011;65250;47.602;19.002;2024-03-22T05:36:47;15.43;;;8.88;;
76417;SDS011;65250;47.602;19.002;2024-03-22T05:39:13;16.73;;;9.55;;
76417;SDS011;65250;47.602;19.002;2024-03-22T05:41:39;15.80;;;9.57;;
76417;SDS011;65250;47.602;19.002;2024-03-22T05:44:05;12.70;;;8.25;;
76417;SDS011;65250;47.602;19.002;2024-03-22T05:46:31;12.67;;;8.93;;
76417;SDS011;65250;47.602;19.002;2024-03-22T05:49:00;15.35;;;8.98;;
76417;SDS011;65250;47.602;19.002;2024-03-22T05:51:26;16.33;;;9.05;;
76417;SDS011;65250;47.602;19.002;2024-03-22T05:53:52;13.82;;;8.82;;
76417;SDS011;65250;47.602;19.002;2024-03-22T05:56:18;16.40;;;10.40;;
76417;SDS011;65250;47.602;19.002;2024-03-22T05:58:44;16.48;;;9.40;;
76417;SDS011;65250;47.602;19.002;2024-03-22T06:01:10;17.42;;;9.73;;
76417;SDS011;65250;47.602;19.002;2024-03-22T06:03:36;14.98;;;8.52;;
76417;SDS011;65250;47.602;19.002;2024-03-22T06:06:02;17.33;;;9.20;;
76417;SDS011;65250;47.602;19.002;2024-03-22T06:08:28;15.30;;;9.40;;
76417;SDS011;65250;47.602;19.002;2024-03-22T06:10:57;14.98;;;8.70;;
76417;SDS011;65250;47.602;19.002;2024-03-22T06:13:23;14.20;;;9.10;;
76417;SDS011;65250;47.602;19.002;2024-03-22T06:15:49;13.77;;;8.40;;
76417;SDS011;65250;47.602;19.002;2024-03-22T06:18:15;15.18;;;9.30;;
76417;SDS011;65250;47.602;19.002;2024-03-22T06:20:41;15.63;;;8.85;;
76417;SDS011;65250;47.602;19.002;2024-03-22T06:23:07;13.65;;;8.68;;
76417;SDS011;65250;47.602;19.002;2024-03-22T06:25:34;16.38;;;9.13;;
76417;SDS011;65250;47.602;19.002;2024-03-22T06:27:59;17.35;;;9.98;;
76417;SDS011;65250;47.602;19.002;2024-03-22T06:30:25;13.47;;;8.73;;
76417;SDS011;65250;47.602;19.002;2024-03-22T06:32:53;16.88;;;9.98;;
76417;SDS011;65250;47.602;19.002;2024-03-22T06:35:20;15.50;;;9.32;;
76417;SDS011;65250;47.602;19.002;2024-03-22T06:37:46;16.58;;;9.43;;
76417;SDS011;65250;47.602;19.002;2024-03-22T06:40:14;17.70;;;9.02;;
76417;SDS011;65250;47.602;19.002;2024-03-22T06:42:40;15.37;;;8.50;;
76417;SDS011;65250;47.602;19.002;2024-03-22T06:45:06;16.25;;;8.32;;
76417;SDS011;65250;47.602;19.002;2024-03-22T06:47:32;15.38;;;8.40;;
76417;SDS011;65250;47.602;19.002;2024-03-22T06:49:58;17.98;;;9.80;;
76417;SDS011;65250;47.602;19.002;2024-03-22T06:52:24;15.52;;;9.25;;
76417;SDS011;65250;47.602;19.002;2024-03-22T06:54:50;16.85;;;8.80;;
76417;SDS011;65250;47.602;19.002;2024-03-22T06:57:18;13.88;;;9.40;;
76417;SDS011;65250;47.602;19.002;2024-03-22T06:59:43;17.75;;;7.82;;
76417;SDS011;65250;47.602;19.002;2024-03-22T07:02:09;13.23;;;8.30;;
76417;SDS011;65250;47.602;19.002;2024-03-22T07:04:35;14.88;;;8.63;;
76417;SDS011;65250;47.602;19.002;2024-03-22T07:07:01;16.85;;;7.10;;
76417;SDS011;65250;47.602;19.002;2024-03-22T07:09:27;17.93;;;9.57;;
76417;SDS011;65250;47.602;19.002;2024-03-22T07:11:55;17.10;;;9.00;;
76417;SDS011;65250;47.602;19.002;2024-03-22T07:14:21;17.05;;;8.10;;
76417;SDS011;65250;47.602;19.002;2024-03-22T07:16:50;16.02;;;8.18;;
76417;SDS011;65250;47.602;19.002;2024-03-22T07:19:16;16.45;;;8.85;;
76417;SDS011;65250;47.602;19.002;2024-03-22T07:21:43;16.33;;;8.57;;
76417;SDS011;65250;47.602;19.002;2024-03-22T07:24:09;15.65;;;8.90;;
76417;SDS011;65250;47.602;19.002;2024-03-22T07:26:35;14.88;;;7.85;;
76417;SDS011;65250;47.602;19.002;2024-03-22T07:29:01;15.40;;;8.60;;
76417;SDS011;65250;47.602;19.002;2024-03-22T07:31:28;15.60;;;9.10;;
76417;SDS011;65250;47.602;19.002;2024-03-22T07:33:54;15.50;;;8.05;;
76417;SDS011;65250;47.602;19.002;2024-03-22T07:36:19;14.60;;;9.70;;
76417;SDS011;65250;47.602;19.002;2024-03-22T07:38:45;16.58;;;9.43;;
76417;SDS011;65250;47.602;19.002;2024-03-22T07:41:11;13.53;;;9.33;;
76417;SDS011;65250;47.602;19.002;2024-03-22T07:43:37;15.00;;;9.55;;
76417;SDS011;65250;47.602;19.002;2024-03-22T07:46:03;16.45;;;9.85;;
76417;SDS011;65250;47.602;19.002;2024-03-22T07:48:29;16.35;;;10.00;;
76417;SDS011;65250;47.602;19.002;2024-03-22T07:50:56;17.37;;;9.30;;
76417;SDS011;65250;47.602;19.002;2024-03-22T07:53:25;16.55;;;9.80;;
76417;SDS011;65250;47.602;19.002;2024-03-22T07:55:51;14.68;;;8.85;;
76417;SDS011;65250;47.602;19.002;2024-03-22T07:58:17;15.18;;;9.77;;
76417;SDS011;65250;47.602;19.002;2024-03-22T08:00:43;14.63;;;9.48;;
76417;SDS011;65250;47.602;19.002;2024-03-22T08:03:14;16.13;;;9.43;;
76417;SDS011;65250;47.602;19.002;2024-03-22T08:05:41;17.38;;;9.32;;
76417;SDS011;65250;47.602;19.002;2024-03-22T08:08:07;15.88;;;10.13;;
76417;SDS011;65250;47.602;19.002;2024-03-22T08:10:33;14.63;;;9.15;;
76417;SDS011;65250;47.602;19.002;2024-03-22T08:13:02;14.57;;;9.50;;
76417;SDS011;65250;47.602;19.002;2024-03-22T08:15:29;13.47;;;9.33;;
76417;SDS011;65250;47.602;19.002;2024-03-22T08:17:55;14.65;;;10.10;;
76417;SDS011;65250;47.602;19.002;2024-03-22T08:20:23;18.50;;;9.27;;
76417;SDS011;65250;47.602;19.002;2024-03-22T08:22:49;15.75;;;9.68;;
76417;SDS011;65250;47.602;19.002;2024-03-22T08:25:15;16.97;;;10.20;;
76417;SDS011;65250;47.602;19.002;2024-03-22T08:27:43;17.15;;;10.20;;
76417;SDS011;65250;47.602;19.002;2024-03-22T08:30:10;19.60;;;10.30;;
76417;SDS011;65250;47.602;19.002;2024-03-22T08:32:36;14.38;;;10.18;;
76417;SDS011;65250;47.602;19.002;2024-03-22T08:35:02;14.90;;;9.93;;
76417;SDS011;65250;47.602;19.002;2024-03-22T08:37:30;15.47;;;9.33;;
76417;SDS011;65250;47.602;19.002;2024-03-22T08:39:56;13.75;;;10.23;;
76417;SDS011;65250;47.602;19.002;2024-03-22T08:42:22;13.68;;;10.23;;
76417;SDS011;65250;47.602;19.002;2024-03-22T08:44:48;14.90;;;9.35;;
76417;SDS011;65250;47.602;19.002;2024-03-22T08:47:14;16.63;;;10.10;;
76417;SDS011;65250;47.602;19.002;2024-03-22T08:49:40;15.20;;;10.32;;
76417;SDS011;65250;47.602;19.002;2024-03-22T08:52:08;19.40;;;9.45;;
76417;SDS011;65250;47.602;19.002;2024-03-22T08:54:34;22.40;;;10.25;;
76417;SDS011;65250;47.602;19.002;2024-03-22T08:57:01;19.13;;;10.87;;
76417;SDS011;65250;47.602;19.002;2024-03-22T08:59:27;23.27;;;10.77;;
76417;SDS011;65250;47.602;19.002;2024-03-22T09:01:53;17.02;;;9.20;;
76417;SDS011;65250;47.602;19.002;2024-03-22T09:04:19;16.00;;;9.75;;
76417;SDS011;65250;47.602;19.002;2024-03-22T09:06:45;13.35;;;9.95;;
76417;SDS011;65250;47.602;19.002;2024-03-22T09:09:12;15.07;;;9.93;;
76417;SDS011;65250;47.602;19.002;2024-03-22T09:11:38;13.82;;;9.55;;
76417;SDS011;65250;47.602;19.002;2024-03-22T09:14:04;18.27;;;10.30;;
76417;SDS011;65250;47.602;19.002;2024-03-22T09:16:30;14.30;;;10.07;;
76417;SDS011;65250;47.602;19.002;2024-03-22T09:18:56;16.80;;;10.60;;
76417;SDS011;65250;47.602;19.002;2024-03-22T09:21:23;14.35;;;10.13;;
76417;SDS011;65250;47.602;19.002;2024-03-22T09:23:50;15.52;;;10.00;;
76417;SDS011;65250;47.602;19.002;2024-03-22T09:26:16;19.20;;;10.57;;
76417;SDS011;65250;47.602;19.002;2024-03-22T09:28:45;21.77;;;10.93;;
76417;SDS011;65250;47.602;19.002;2024-03-22T09:31:12;17.00;;;10.60;;
76417;SDS011;65250;47.602;19.002;2024-03-22T09:33:37;14.93;;;10.65;;
76417;SDS011;65250;47.602;19.002;2024-03-22T09:36:03;13.20;;;10.30;;
76417;SDS011;65250;47.602;19.002;2024-03-22T09:38:30;17.70;;;11.20;;
76417;SDS011;65250;47.602;19.002;2024-03-22T09:40:56;15.80;;;11.55;;
76417;SDS011;65250;47.602;19.002;2024-03-22T09:43:21;17.60;;;11.05;;
76417;SDS011;65250;47.602;19.002;2024-03-22T09:45:49;15.98;;;10.05;;
76417;SDS011;65250;47.602;19.002;2024-03-22T09:48:17;14.20;;;9.97;;
76417;SDS011;65250;47.602;19.002;2024-03-22T09:50:45;15.45;;;10.75;;
76417;SDS011;65250;47.602;19.002;2024-03-22T09:53:12;17.27;;;10.85;;
76417;SDS011;65250;47.602;19.002;2024-03-22T09:55:38;17.25;;;10.65;;
76417;SDS011;65250;47.602;19.002;2024-03-22T09:58:06;14.30;;;10.13;;
76417;SDS011;65250;47.602;19.002;2024-03-22T10:00:32;14.80;;;10.17;;
76417;SDS011;65250;47.602;19.002;2024-03-22T10:03:01;16.73;;;10.35;;
76417;SDS011;65250;47.602;19.002;2024-03-22T10:05:28;14.48;;;10.35;;
76417;SDS011;65250;47.602;19.002;2024-03-22T10:07:54;13.88;;;10.55;;
76417;SDS011;65250;47.602;19.002;2024-03-22T10:10:21;13.60;;;10.63;;
76417;SDS011;65250;47.602;19.002;2024-03-22T10:12:47;16.40;;;10.77;;
76417;SDS011;65250;47.602;19.002;2024-03-22T10:15:13;12.68;;;10.07;;
76417;SDS011;65250;47.602;19.002;2024-03-22T10:17:39;18.40;;;10.30;;
76417;SDS011;65250;47.602;19.002;2024-03-22T10:20:05;12.50;;;9.80;;
76417;SDS011;65250;47.602;19.002;2024-03-22T10:22:42;16.40;;;10.32;;
76417;SDS011;65250;47.602;19.002;2024-03-22T10:25:12;19.08;;;10.77;;
76417;SDS011;65250;47.602;19.002;2024-03-22T10:27:38;15.93;;;10.70;;
76417;SDS011;65250;47.602;19.002;2024-03-22T10:30:06;13.63;;;10.80;;
76417;SDS011;65250;47.602;19.002;2024-03-22T10:32:34;38.43;;;11.47;;
76417;SDS011;65250;47.602;19.002;2024-03-22T10:35:03;13.73;;;9.88;;
76417;SDS011;65250;47.602;19.002;2024-03-22T10:37:31;15.60;;;10.13;;
76417;SDS011;65250;47.602;19.002;2024-03-22T10:40:03;15.15;;;9.70;;
76417;SDS011;65250;47.602;19.002;2024-03-22T10:42:34;13.75;;;10.23;;
76417;SDS011;65250;47.602;19.002;2024-03-22T10:45:00;17.93;;;9.57;;
76417;SDS011;65250;47.602;19.002;2024-03-22T10:47:29;15.30;;;10.10;;
76417;SDS011;65250;47.602;19.002;2024-03-22T10:50:04;15.80;;;9.70;;
76417;SDS011;65250;47.602;19.002;2024-03-22T10:52:33;17.25;;;10.10;;
76417;SDS011;65250;47.602;19.002;2024-03-22T10:55:18;15.85;;;9.95;;
76417;SDS011;65250;47.602;19.002;2024-03-22T10:57:47;16.10;;;10.47;;
76417;SDS011;65250;47.602;19.002;2024-03-22T11:00:13;18.23;;;10.05;;
76417;SDS011;65250;47.602;19.002;2024-03-22T11:02:44;15.93;;;10.15;;
76417;SDS011;65250;47.602;19.002;2024-03-22T11:05:17;20.42;;;9.73;;
76417;SDS011;65250;47.602;19.002;2024-03-22T11:07:46;11.60;;;9.27;;
76417;SDS011;65250;47.602;19.002;2024-03-22T11:10:13;16.93;;;10.87;;
76417;SDS011;65250;47.602;19.002;2024-03-22T11:12:40;15.45;;;11.20;;
76417;SDS011;65250;47.602;19.002;2024-03-22T11:15:11;15.43;;;10.57;;
76417;SDS011;65250;47.602;19.002;2024-03-22T11:17:38;12.55;;;9.30;;
76417;SDS011;65250;47.602;19.002;2024-03-22T11:20:04;11.65;;;9.27;;
76417;SDS011;65250;47.602;19.002;2024-03-22T11:22:31;13.83;;;9.73;;
76417;SDS011;65250;47.602;19.002;2024-03-22T11:24:57;17.02;;;9.82;;
76417;SDS011;65250;47.602;19.002;2024-03-22T11:27:23;15.93;;;10.63;;
76417;SDS011;65250;47.602;19.002;2024-03-22T11:29:49;18.20;;;9.20;;
76417;SDS011;65250;47.602;19.002;2024-03-22T11:32:17;9.07;;;7.73;;
76417;SDS011;65250;47.602;19.002;2024-03-22T11:34:43;10.68;;;9.05;;
76417;SDS011;65250;47.602;19.002;2024-03-22T11:37:09;14.98;;;8.65;;
76417;SDS011;65250;47.602;19.002;2024-03-22T11:39:36;15.52;;;8.30;;
76417;SDS011;65250;47.602;19.002;2024-03-22T11:42:06;14.00;;;8.70;;
76417;SDS011;65250;47.602;19.002;2024-03-22T11:44:33;13.30;;;8.80;;
76417;SDS011;65250;47.602;19.002;2024-03-22T11:46:59;16.95;;;8.18;;
76417;SDS011;65250;47.602;19.002;2024-03-22T11:49:25;10.98;;;7.53;;
76417;SDS011;65250;47.602;19.002;2024-03-22T11:51:52;10.10;;;6.30;;
76417;SDS011;65250;47.602;19.002;2024-03-22T11:54:21;10.20;;;6.38;;
76417;SDS011;65250;47.602;19.002;2024-03-22T11:56:47;8.02;;;6.50;;
76417;SDS011;65250;47.602;19.002;2024-03-22T11:59:13;14.68;;;7.43;;
76417;SDS011;65250;47.602;19.002;2024-03-22T12:01:40;11.93;;;8.97;;
76417;SDS011;65250;47.602;19.002;2024-03-22T12:04:06;14.70;;;7.05;;
76417;SDS011;65250;47.602;19.002;2024-03-22T12:06:34;10.48;;;8.35;;
76417;SDS011;65250;47.602;19.002;2024-03-22T12:09:00;11.82;;;8.82;;
76417;SDS011;65250;47.602;19.002;2024-03-22T12:11:26;11.30;;;8.00;;
76417;SDS011;65250;47.602;19.002;2024-03-22T12:13:52;10.82;;;8.02;;
76417;SDS011;65250;47.602;19.002;2024-03-22T12:16:18;14.23;;;8.30;;
76417;SDS011;65250;47.602;19.002;2024-03-22T12:18:44;10.43;;;7.90;;
76417;SDS011;65250;47.602;19.002;2024-03-22T12:21:10;20.00;;;8.23;;
76417;SDS011;65250;47.602;19.002;2024-03-22T12:23:36;11.82;;;8.75;;
76417;SDS011;65250;47.602;19.002;2024-03-22T12:26:02;18.75;;;8.60;;
76417;SDS011;65250;47.602;19.002;2024-03-22T12:28:28;12.98;;;8.65;;
76417;SDS011;65250;47.602;19.002;2024-03-22T12:30:54;12.03;;;8.43;;
76417;SDS011;65250;47.602;19.002;2024-03-22T12:33:20;14.50;;;7.35;;
76417;SDS011;65250;47.602;19.002;2024-03-22T12:35:46;11.88;;;8.02;;
76417;SDS011;65250;47.602;19.002;2024-03-22T12:38:14;12.30;;;7.50;;
76417;SDS011;65250;47.602;19.002;2024-03-22T12:40:40;12.13;;;7.78;;
76417;SDS011;65250;47.602;19.002;2024-03-22T12:43:07;11.02;;;7.43;;
76417;SDS011;65250;47.602;19.002;2024-03-22T12:45:34;12.93;;;7.53;;
76417;SDS011;65250;47.602;19.002;2024-03-22T12:48:00;14.23;;;7.97;;
76417;SDS011;65250;47.602;19.002;2024-03-22T12:50:26;11.70;;;8.05;;
76417;SDS011;65250;47.602;19.002;2024-03-22T12:52:52;16.70;;;8.07;;
76417;SDS011;65250;47.602;19.002;2024-03-22T12:55:18;13.70;;;8.52;;
76417;SDS011;65250;47.602;19.002;2024-03-22T12:57:44;10.70;;;7.00;;
76417;SDS011;65250;47.602;19.002;2024-03-22T13:00:10;12.90;;;8.35;;
76417;SDS011;65250;47.602;19.002;2024-03-22T13:02:47;11.02;;;7.38;;
76417;SDS011;65250;47.602;19.002;2024-03-22T13:05:13;12.75;;;7.95;;
76417;SDS011;65250;47.602;19.002;2024-03-22T13:07:40;10.77;;;7.53;;
76417;SDS011;65250;47.602;19.002;2024-03-22T13:10:07;9.13;;;8.10;;
76417;SDS011;65250;47.602;19.002;2024-03-22T13:12:34;13.60;;;8.48;;
76417;SDS011;65250;47.602;19.002;2024-03-22T13:15:00;10.80;;;8.27;;
76417;SDS011;65250;47.602;19.002;2024-03-22T13:17:27;10.32;;;9.23;;
76417;SDS011;65250;47.602;19.002;2024-03-22T13:19:53;9.50;;;8.60;;
76417;SDS011;65250;47.602;19.002;2024-03-22T13:22:20;11.53;;;9.43;;
76417;SDS011;65250;47.602;19.002;2024-03-22T13:24:46;10.70;;;9.60;;
76417;SDS011;65250;47.602;19.002;2024-03-22T13:27:12;11.52;;;9.55;;
76417;SDS011;65250;47.602;19.002;2024-03-22T13:29:39;13.43;;;10.07;;
76417;SDS011;65250;47.602;19.002;2024-03-22T13:32:08;15.23;;;9.10;;
76417;SDS011;65250;47.602;19.002;2024-03-22T13:34:37;10.80;;;9.40;;
76417;SDS011;65250;47.602;19.002;2024-03-22T13:37:04;15.40;;;10.27;;
76417;SDS011;65250;47.602;19.002;2024-03-22T13:39:31;16.30;;;9.05;;
76417;SDS011;65250;47.602;19.002;2024-03-22T13:41:57;21.60;;;9.50;;
76417;SDS011;65250;47.602;19.002;2024-03-22T13:44:23;11.02;;;9.63;;
76417;SDS011;65250;47.602;19.002;2024-03-22T13:46:50;11.60;;;8.95;;
76417;SDS011;65250;47.602;19.002;2024-03-22T13:49:17;12.40;;;8.90;;
76417;SDS011;65250;47.602;19.002;2024-03-22T13:51:49;11.88;;;8.68;;
76417;SDS011;65250;47.602;19.002;2024-03-22T13:54:15;9.77;;;8.63;;
76417;SDS011;65250;47.602;19.002;2024-03-22T13:56:41;12.30;;;9.50;;
76417;SDS011;65250;47.602;19.002;2024-03-22T13:59:08;10.60;;;8.52;;
76417;SDS011;65250;47.602;19.002;2024-03-22T14:01:34;17.10;;;8.57;;
76417;SDS011;65250;47.602;19.002;2024-03-22T14:04:03;11.57;;;7.93;;
76417;SDS011;65250;47.602;19.002;2024-03-22T14:06:30;12.00;;;8.73;;
76417;SDS011;65250;47.602;19.002;2024-03-22T14:08:57;9.38;;;7.97;;
76417;SDS011;65250;47.602;19.002;2024-03-22T14:11:29;9.40;;;7.85;;
76417;SDS011;65250;47.602;19.002;2024-03-22T14:13:56;9.43;;;7.68;;
76417;SDS011;65250;47.602;19.002;2024-03-22T14:16:23;8.80;;;7.82;;